createdAt,value
2024-01-26T00:01:28.309Z,100.00
2024-01-26T00:03:55.115Z,100.00
2024-01-26T00:06:21.906Z,100.00
2024-01-26T00:08:48.424Z,100.00
2024-01-26T00:11:15.808Z,100.00
2024-01-26T00:13:42.414Z,100.00
2024-01-26T00:16:09.532Z,100.00
2024-01-26T00:18:37.085Z,100.00
2024-01-26T00:21:04.955Z,100.00
2024-01-26T00:23:31.726Z,100.00
2024-01-26T00:25:58.396Z,100.00
2024-01-26T00:28:25.034Z,100.00
2024-01-26T00:30:51.576Z,100.00
2024-01-26T00:33:18.848Z,100.00
2024-01-26T00:35:45.488Z,100.00
2024-01-26T00:38:12.016Z,100.00
2024-01-26T00:40:38.452Z,100.00
2024-01-26T00:43:05.072Z,100.00
2024-01-26T00:45:31.743Z,100.00
2024-01-26T00:47:58.347Z,100.00
2024-01-26T00:50:26.112Z,100.00
2024-01-26T00:52:53.186Z,100.00
2024-01-26T00:55:19.698Z,100.00
2024-01-26T00:57:46.300Z,100.00
2024-01-26T01:00:13.789Z,100.00
2024-01-26T01:02:40.305Z,100.00
2024-01-26T01:05:08.101Z,100.00
2024-01-26T01:07:34.693Z,100.00
2024-01-26T01:10:01.485Z,100.00
2024-01-26T01:12:27.995Z,100.00
2024-01-26T01:14:54.471Z,100.00
2024-01-26T01:17:20.961Z,100.00
2024-01-26T01:19:47.573Z,100.00
2024-01-26T01:22:14.085Z,100.00
2024-01-26T01:24:40.549Z,100.00
2024-01-26T01:27:07.156Z,100.00
2024-01-26T01:29:33.726Z,100.00
2024-01-26T01:32:00.248Z,100.00
2024-01-26T01:34:26.901Z,100.00
2024-01-26T01:36:53.426Z,100.00
2024-01-26T01:39:19.979Z,100.00
2024-01-26T01:41:50.149Z,100.00
2024-01-26T01:44:16.658Z,100.00
2024-01-26T01:46:43.212Z,100.00
2024-01-26T01:49:09.840Z,100.00
2024-01-26T01:51:36.691Z,100.00
2024-01-26T01:54:04.019Z,100.00
2024-01-26T01:56:30.655Z,100.00
2024-01-26T01:58:59.901Z,100.00
2024-01-26T02:01:26.763Z,100.00
2024-01-26T02:03:53.337Z,100.00
2024-01-26T02:06:20.204Z,100.00
2024-01-26T02:08:46.814Z,100.00
2024-01-26T02:11:13.379Z,100.00
2024-01-26T02:13:39.830Z,100.00
2024-01-26T02:16:06.403Z,100.00
2024-01-26T02:18:34.055Z,100.00
2024-01-26T02:21:00.632Z,100.00
2024-01-26T02:23:27.215Z,100.00
2024-01-26T02:25:53.799Z,100.00
2024-01-26T02:28:20.468Z,100.00
2024-01-26T02:30:47.153Z,100.00
2024-01-26T02:33:13.935Z,100.00
2024-01-26T02:35:40.551Z,100.00
2024-01-26T02:38:07.089Z,100.00
2024-01-26T02:40:33.785Z,100.00
2024-01-26T02:43:00.292Z,100.00
2024-01-26T02:45:27.367Z,100.00
2024-01-26T02:47:54.968Z,100.00
2024-01-26T02:50:21.623Z,100.00
2024-01-26T02:52:48.131Z,100.00
2024-01-26T02:55:14.604Z,100.00
2024-01-26T02:57:41.077Z,100.00
2024-01-26T03:00:09.001Z,100.00
2024-01-26T03:02:35.871Z,100.00
2024-01-26T03:05:02.426Z,100.00
2024-01-26T03:07:28.916Z,100.00
2024-01-26T03:09:55.406Z,100.00
2024-01-26T03:12:21.965Z,100.00
2024-01-26T03:14:48.670Z,100.00
2024-01-26T03:17:15.170Z,100.00
2024-01-26T03:19:41.687Z,100.00
2024-01-26T03:22:08.272Z,100.00
2024-01-26T03:24:34.886Z,100.00
2024-01-26T03:27:01.493Z,100.00
2024-01-26T03:29:28.078Z,100.00
2024-01-26T03:31:54.692Z,100.00
2024-01-26T03:34:21.303Z,100.00
2024-01-26T03:36:48.460Z,100.00
2024-01-26T03:39:15.125Z,100.00
2024-01-26T03:41:42.226Z,100.00
2024-01-26T03:44:09.055Z,100.00
2024-01-26T03:46:35.530Z,100.00
2024-01-26T03:49:04.881Z,100.00
2024-01-26T03:51:31.551Z,100.00
2024-01-26T03:54:00.644Z,100.00
2024-01-26T03:56:27.360Z,100.00
2024-01-26T03:58:54.873Z,100.00
2024-01-26T04:01:21.932Z,100.00
2024-01-26T04:03:49.256Z,100.00
2024-01-26T04:06:16.038Z,100.00
2024-01-26T04:08:42.640Z,100.00
2024-01-26T04:11:09.217Z,100.00
2024-01-26T04:13:35.705Z,100.00
2024-01-26T04:16:02.195Z,100.00
2024-01-26T04:18:28.821Z,100.00
2024-01-26T04:20:55.479Z,100.00
2024-01-26T04:23:22.022Z,100.00
2024-01-26T04:25:48.778Z,100.00
2024-01-26T04:28:15.440Z,100.00
2024-01-26T04:30:44.430Z,100.00
2024-01-26T04:33:11.392Z,100.00
2024-01-26T04:35:38.085Z,100.00
2024-01-26T04:38:06.883Z,100.00
2024-01-26T04:40:34.637Z,100.00
2024-01-26T04:43:01.379Z,100.00
2024-01-26T04:45:27.899Z,100.00
2024-01-26T04:47:54.454Z,100.00
2024-01-26T04:50:20.928Z,100.00
2024-01-26T04:52:47.425Z,100.00
2024-01-26T04:55:13.989Z,100.00
2024-01-26T04:57:40.485Z,100.00
2024-01-26T05:00:09.088Z,100.00
2024-01-26T05:02:35.728Z,100.00
2024-01-26T05:05:02.301Z,100.00
2024-01-26T05:07:28.860Z,100.00
2024-01-26T05:09:55.362Z,100.00
2024-01-26T05:12:22.028Z,100.00
2024-01-26T05:14:48.655Z,100.00
2024-01-26T05:17:15.104Z,100.00
2024-01-26T05:19:41.644Z,100.00
2024-01-26T05:22:08.191Z,100.00
2024-01-26T05:24:34.647Z,100.00
2024-01-26T05:27:01.234Z,100.00
2024-01-26T05:29:27.915Z,100.00
2024-01-26T05:31:54.466Z,100.00
2024-01-26T05:34:21.285Z,100.00
2024-01-26T05:36:47.932Z,100.00
2024-01-26T05:39:14.866Z,100.00
2024-01-26T05:41:41.695Z,100.00
2024-01-26T05:44:08.212Z,100.00
2024-01-26T05:46:34.727Z,100.00
2024-01-26T05:49:02.634Z,100.00
2024-01-26T05:51:29.626Z,100.00
2024-01-26T05:53:56.256Z,100.00
2024-01-26T05:56:25.773Z,100.00
2024-01-26T05:58:53.706Z,100.00
2024-01-26T06:01:20.272Z,100.00
2024-01-26T06:03:46.871Z,100.00
2024-01-26T06:06:13.463Z,100.00
2024-01-26T06:08:45.407Z,100.00
2024-01-26T06:11:12.293Z,100.00
2024-01-26T06:13:38.822Z,100.00
2024-01-26T06:16:06.092Z,100.00
2024-01-26T06:18:32.694Z,100.00
2024-01-26T06:20:59.366Z,100.00
2024-01-26T06:23:26.081Z,100.00
2024-01-26T06:25:53.024Z,100.00
2024-01-26T06:28:19.521Z,100.00
2024-01-26T06:30:46.124Z,100.00
2024-01-26T06:33:12.792Z,100.00
2024-01-26T06:35:39.491Z,100.00
2024-01-26T06:38:06.017Z,100.00
2024-01-26T06:40:32.600Z,100.00
2024-01-26T06:43:03.017Z,100.00
2024-01-26T06:45:29.501Z,100.00
2024-01-26T06:47:56.203Z,100.00
2024-01-26T06:50:22.779Z,100.00
2024-01-26T06:52:49.334Z,100.00
2024-01-26T06:55:15.926Z,100.00
2024-01-26T06:57:42.586Z,100.00
2024-01-26T07:00:10.432Z,100.00
2024-01-26T07:02:38.174Z,100.00
2024-01-26T07:05:05.232Z,100.00
2024-01-26T07:07:31.661Z,100.00
2024-01-26T07:09:58.185Z,100.00
2024-01-26T07:12:24.692Z,100.00
2024-01-26T07:14:51.205Z,100.00
2024-01-26T07:17:18.284Z,100.00
2024-01-26T07:19:44.825Z,100.00
2024-01-26T07:22:11.262Z,100.00
2024-01-26T07:24:37.819Z,100.00
2024-01-26T07:27:04.383Z,100.00
2024-01-26T07:29:30.896Z,100.00
2024-01-26T07:31:57.454Z,100.00
2024-01-26T07:34:24.037Z,100.00
2024-01-26T07:36:50.612Z,100.00
2024-01-26T07:39:17.248Z,100.00
2024-01-26T07:41:43.803Z,100.00
2024-01-26T07:44:10.356Z,100.00
2024-01-26T07:46:39.794Z,100.00
2024-01-26T07:49:06.704Z,100.00
2024-01-26T07:51:33.397Z,100.00
2024-01-26T07:53:59.997Z,100.00
2024-01-26T07:56:26.482Z,100.00
2024-01-26T07:58:53.111Z,100.00
2024-01-26T08:01:19.981Z,100.00
2024-01-26T08:03:47.229Z,100.00
2024-01-26T08:06:16.643Z,100.00
2024-01-26T08:08:43.198Z,100.00
2024-01-26T08:11:11.756Z,100.00
2024-01-26T08:13:38.468Z,100.00
2024-01-26T08:16:05.426Z,100.00
2024-01-26T08:18:32.185Z,100.00
2024-01-26T08:20:58.983Z,100.00
2024-01-26T08:23:25.896Z,100.00
2024-01-26T08:25:52.627Z,100.00
2024-01-26T08:28:19.332Z,100.00
2024-01-26T08:30:46.059Z,100.00
2024-01-26T08:33:12.675Z,100.00
2024-01-26T08:35:39.445Z,100.00
2024-01-26T08:38:06.069Z,100.00
2024-01-26T08:40:32.570Z,100.00
2024-01-26T08:42:59.099Z,100.00
2024-01-26T08:45:25.831Z,100.00
2024-01-26T08:47:52.973Z,100.00
2024-01-26T08:50:19.664Z,100.00
2024-01-26T08:52:46.281Z,100.00
2024-01-26T08:55:12.903Z,100.00
2024-01-26T08:57:39.554Z,100.00
2024-01-26T09:00:10.441Z,100.00
2024-01-26T09:02:37.308Z,100.00
2024-01-26T09:05:03.982Z,100.00
2024-01-26T09:07:30.497Z,100.00
2024-01-26T09:09:56.950Z,100.00
2024-01-26T09:12:23.482Z,100.00
2024-01-26T09:14:50.058Z,100.00
2024-01-26T09:17:17.425Z,100.00
2024-01-26T09:19:44.082Z,100.00
2024-01-26T09:22:10.624Z,100.00
2024-01-26T09:24:37.170Z,100.00
2024-01-26T09:27:03.869Z,100.00
2024-01-26T09:29:30.350Z,100.00
2024-01-26T09:31:58.199Z,100.00
2024-01-26T09:34:25.150Z,100.00
2024-01-26T09:36:53.542Z,100.00
2024-01-26T09:39:22.963Z,100.00
2024-01-26T09:41:49.732Z,100.00
2024-01-26T09:44:16.230Z,100.00
2024-01-26T09:46:44.360Z,100.00
2024-01-26T09:49:11.125Z,100.00
2024-01-26T09:51:38.212Z,100.00
2024-01-26T09:54:06.179Z,100.00
2024-01-26T09:56:34.623Z,100.00
2024-01-26T09:59:02.435Z,100.00
2024-01-26T10:01:29.220Z,100.00
2024-01-26T10:03:57.430Z,99.55
2024-01-26T10:06:24.329Z,99.63
2024-01-26T10:08:50.910Z,99.32
2024-01-26T10:11:17.460Z,98.27
2024-01-26T10:13:44.002Z,97.66
2024-01-26T10:16:14.065Z,95.00
2024-01-26T10:18:41.970Z,97.38
2024-01-26T10:21:09.244Z,94.68
2024-01-26T10:23:36.426Z,90.92
2024-01-26T10:26:04.025Z,90.96
2024-01-26T10:28:30.685Z,86.38
2024-01-26T10:30:57.237Z,86.18
2024-01-26T10:33:27.141Z,82.62
2024-01-26T10:35:58.162Z,80.23
2024-01-26T10:38:26.454Z,82.46
2024-01-26T10:40:59.672Z,79.65
2024-01-26T10:43:26.558Z,78.95
2024-01-26T10:45:53.742Z,76.14
2024-01-26T10:48:20.776Z,75.65
2024-01-26T10:50:48.374Z,75.72
2024-01-26T10:53:15.995Z,76.84
2024-01-26T10:55:43.902Z,74.47
2024-01-26T10:58:11.075Z,76.62
2024-01-26T11:00:37.786Z,75.75
2024-01-26T11:03:04.908Z,73.38
2024-01-26T11:05:32.062Z,74.27
2024-01-26T11:07:59.562Z,73.79
2024-01-26T11:10:27.321Z,73.97
2024-01-26T11:13:02.146Z,70.69
2024-01-26T11:15:29.674Z,71.72
2024-01-26T11:18:00.262Z,73.13
2024-01-26T11:20:31.666Z,69.39
2024-01-26T11:23:15.967Z,69.00
2024-01-26T11:25:44.576Z,70.00
2024-01-26T11:28:12.187Z,71.04
2024-01-26T11:30:38.907Z,69.74
2024-01-26T11:33:19.202Z,68.89
2024-01-26T11:35:46.962Z,68.66
2024-01-26T11:38:14.282Z,69.26
2024-01-26T11:40:41.169Z,69.75
2024-01-26T11:43:08.321Z,71.08
2024-01-26T11:45:46.386Z,70.56
2024-01-26T11:48:14.881Z,70.66
2024-01-26T11:50:45.998Z,70.46
2024-01-26T11:53:17.738Z,70.42
2024-01-26T11:55:45.379Z,71.27
2024-01-26T11:58:12.555Z,71.34
2024-01-26T12:00:40.215Z,70.30
2024-01-26T12:03:09.520Z,70.46
2024-01-26T12:05:37.446Z,72.04
2024-01-26T12:08:06.160Z,71.45
2024-01-26T12:10:36.301Z,69.46
2024-01-26T12:13:04.576Z,70.19
2024-01-26T12:15:33.424Z,71.77
2024-01-26T12:20:27.431Z,69.81
2024-01-26T12:22:57.194Z,69.71
2024-01-26T12:25:28.642Z,71.08
2024-01-26T12:27:55.787Z,71.53
2024-01-26T12:30:22.577Z,70.62
2024-01-26T12:32:49.377Z,70.95
2024-01-26T12:35:16.054Z,69.75
2024-01-26T12:37:45.158Z,70.13
2024-01-26T12:40:12.262Z,70.55
2024-01-26T12:42:39.451Z,68.19
2024-01-26T12:45:06.215Z,70.09
2024-01-26T12:47:33.011Z,71.35
2024-01-26T12:49:59.742Z,71.44
2024-01-26T12:52:26.324Z,70.89
2024-01-26T12:54:56.253Z,71.68
2024-01-26T12:57:23.380Z,68.38
2024-01-26T12:59:49.951Z,71.54
2024-01-26T13:02:16.801Z,71.76
2024-01-26T13:04:44.167Z,71.57
2024-01-26T13:07:11.323Z,70.86
2024-01-26T13:09:37.917Z,70.56
2024-01-26T13:12:05.102Z,70.76
2024-01-26T13:14:31.675Z,70.07
2024-01-26T13:16:58.215Z,67.93
2024-01-26T13:19:24.884Z,71.28
2024-01-26T13:21:51.634Z,69.06
2024-01-26T13:24:18.753Z,70.93
2024-01-26T13:26:46.052Z,71.10
2024-01-26T13:29:12.926Z,70.40
2024-01-26T13:31:39.680Z,69.59
2024-01-26T13:34:06.321Z,69.42
2024-01-26T13:36:32.933Z,71.34
2024-01-26T13:38:59.489Z,71.70
2024-01-26T13:41:26.231Z,72.01
2024-01-26T13:43:52.964Z,71.57
2024-01-26T13:46:19.785Z,71.96
2024-01-26T13:48:46.420Z,72.05
2024-01-26T13:51:13.114Z,71.74
2024-01-26T13:53:39.769Z,69.92
2024-01-26T13:56:06.621Z,72.65
2024-01-26T13:58:33.151Z,72.97
2024-01-26T14:01:00.171Z,71.91
2024-01-26T14:03:26.898Z,72.26
2024-01-26T14:05:53.795Z,72.65
2024-01-26T14:08:20.424Z,73.45
2024-01-26T14:10:46.953Z,71.97
2024-01-26T14:13:13.377Z,70.97
2024-01-26T14:15:39.880Z,72.77
2024-01-26T14:18:06.527Z,73.04
2024-01-26T14:20:35.034Z,72.07
2024-01-26T14:23:01.497Z,72.27
2024-01-26T14:25:28.013Z,72.59
2024-01-26T14:27:55.140Z,72.08
2024-01-26T14:30:23.508Z,72.51
2024-01-26T14:32:50.704Z,73.08
2024-01-26T14:35:17.305Z,72.78
2024-01-26T14:37:44.656Z,72.16
2024-01-26T14:40:14.248Z,71.68
2024-01-26T14:42:41.051Z,73.40
2024-01-26T14:45:08.464Z,73.16
2024-01-26T14:47:39.332Z,72.48
2024-01-26T14:50:10.553Z,74.05
2024-01-26T14:52:41.086Z,72.77
2024-01-26T14:55:14.789Z,72.33
2024-01-26T14:57:42.191Z,72.71
2024-01-26T15:00:09.464Z,70.40
2024-01-26T15:02:39.133Z,72.09
2024-01-26T15:05:06.451Z,72.89
2024-01-26T15:07:37.217Z,73.28
2024-01-26T15:10:06.109Z,72.98
2024-01-26T15:12:32.576Z,73.95
2024-01-26T15:14:59.237Z,73.68
2024-01-26T15:17:25.719Z,73.18
2024-01-26T15:19:53.800Z,72.22
2024-01-26T15:22:20.444Z,72.64
2024-01-26T15:24:47.023Z,70.91
2024-01-26T15:27:13.521Z,71.77
2024-01-26T15:29:39.998Z,72.25
2024-01-26T15:32:06.933Z,72.63
2024-01-26T15:34:36.397Z,72.03
2024-01-26T15:37:03.477Z,73.37
2024-01-26T15:39:29.964Z,73.10
2024-01-26T15:41:56.535Z,73.38
2024-01-26T15:44:23.414Z,72.66
2024-01-26T15:46:49.891Z,72.64
2024-01-26T15:49:16.674Z,72.24
2024-01-26T15:51:43.203Z,73.40
2024-01-26T15:54:10.204Z,74.23
2024-01-26T15:56:39.336Z,74.27
2024-01-26T15:59:05.954Z,74.73
2024-01-26T16:01:32.759Z,75.08
2024-01-26T16:03:59.430Z,75.07
2024-01-26T16:06:26.250Z,74.50
2024-01-26T16:08:52.811Z,75.82
2024-01-26T16:11:20.189Z,76.02
2024-01-26T16:13:47.247Z,75.93
2024-01-26T16:16:14.213Z,76.24
2024-01-26T16:18:40.798Z,76.64
2024-01-26T16:21:07.443Z,76.76
2024-01-26T16:23:33.959Z,77.10
2024-01-26T16:26:00.452Z,77.01
2024-01-26T16:28:26.958Z,77.04
2024-01-26T16:30:53.460Z,77.73
2024-01-26T16:33:20.178Z,77.99
2024-01-26T16:35:47.006Z,78.01
2024-01-26T16:38:14.202Z,78.10
2024-01-26T16:40:40.839Z,78.68
2024-01-26T16:43:07.460Z,78.76
2024-01-26T16:45:34.025Z,78.47
2024-01-26T16:48:00.924Z,79.06
2024-01-26T16:50:27.511Z,79.08
2024-01-26T16:52:53.990Z,79.36
2024-01-26T16:55:20.628Z,79.52
2024-01-26T16:57:47.258Z,79.58
2024-01-26T17:00:14.846Z,79.71
2024-01-26T17:02:41.446Z,80.06
2024-01-26T17:05:08.129Z,79.96
2024-01-26T17:07:35.733Z,80.50
2024-01-26T17:10:02.478Z,80.60
2024-01-26T17:12:29.029Z,80.08
2024-01-26T17:14:55.649Z,80.34
2024-01-26T17:17:23.155Z,80.54
2024-01-26T17:19:52.734Z,80.17
2024-01-26T17:22:19.804Z,80.49
2024-01-26T17:24:46.443Z,80.86
2024-01-26T17:27:13.083Z,81.04
2024-01-26T17:29:39.628Z,81.22
2024-01-26T17:32:06.397Z,80.81
2024-01-26T17:34:33.957Z,81.23
2024-01-26T17:37:00.677Z,81.30
2024-01-26T17:39:27.355Z,81.37
2024-01-26T17:41:56.188Z,81.54
2024-01-26T17:44:25.312Z,81.56
2024-01-26T17:46:51.841Z,82.18
2024-01-26T17:49:18.484Z,81.68
2024-01-26T17:51:45.215Z,81.85
2024-01-26T17:54:11.678Z,82.61
2024-01-26T17:56:38.166Z,81.81
2024-01-26T17:59:04.600Z,82.17
2024-01-26T18:01:31.217Z,82.15
2024-01-26T18:03:59.573Z,82.08
2024-01-26T18:06:27.039Z,81.88
2024-01-26T18:08:53.684Z,81.74
2024-01-26T18:11:20.207Z,81.74
2024-01-26T18:13:46.717Z,82.20
2024-01-26T18:16:13.222Z,82.02
2024-01-26T18:18:40.186Z,81.74
2024-01-26T18:21:06.772Z,82.03
2024-01-26T18:23:33.386Z,81.59
2024-01-26T18:25:59.986Z,82.15
2024-01-26T18:28:26.509Z,82.11
2024-01-26T18:30:53.016Z,81.93
2024-01-26T18:33:19.898Z,82.02
2024-01-26T18:35:46.764Z,81.72
2024-01-26T18:38:13.297Z,81.89
2024-01-26T18:40:39.820Z,82.38
2024-01-26T18:43:06.265Z,82.09
2024-01-26T18:45:32.815Z,82.86
2024-01-26T18:47:59.474Z,82.38
2024-01-26T18:50:26.132Z,82.45
2024-01-26T18:52:52.785Z,82.75
2024-01-26T18:55:19.581Z,82.89
2024-01-26T18:57:46.110Z,82.69
2024-01-26T19:00:13.515Z,83.16
2024-01-26T19:02:40.653Z,83.01
2024-01-26T19:05:10.782Z,83.24
2024-01-26T19:07:37.748Z,83.39
2024-01-26T19:10:04.992Z,83.39
2024-01-26T19:12:31.776Z,83.48
2024-01-26T19:14:58.553Z,83.21
2024-01-26T19:17:25.366Z,83.55
2024-01-26T19:19:51.940Z,83.69
2024-01-26T19:22:18.520Z,83.95
2024-01-26T19:24:46.006Z,83.77
2024-01-26T19:27:12.942Z,84.16
2024-01-26T19:29:41.255Z,84.45
2024-01-26T19:32:07.867Z,84.38
2024-01-26T19:34:35.170Z,84.56
2024-01-26T19:37:05.690Z,84.53
2024-01-26T19:39:32.215Z,84.48
2024-01-26T19:41:59.172Z,84.91
2024-01-26T19:44:25.786Z,84.98
2024-01-26T19:46:52.318Z,85.25
2024-01-26T19:49:19.070Z,85.35
2024-01-26T19:51:50.309Z,85.62
2024-01-26T19:54:16.888Z,85.71
2024-01-26T19:56:43.514Z,86.10
2024-01-26T19:59:10.051Z,86.49
2024-01-26T20:01:36.557Z,86.72
2024-01-26T20:04:03.238Z,86.97
2024-01-26T20:06:29.833Z,87.15
2024-01-26T20:08:58.131Z,87.71
2024-01-26T20:11:24.678Z,87.83
2024-01-26T20:13:51.166Z,87.95
2024-01-26T20:16:17.947Z,88.09
2024-01-26T20:18:44.651Z,88.24
2024-01-26T20:21:14.483Z,88.14
2024-01-26T20:23:43.643Z,87.72
2024-01-26T20:26:10.873Z,88.56
2024-01-26T20:28:39.124Z,88.52
2024-01-26T20:31:08.749Z,88.63
2024-01-26T20:33:37.481Z,88.77
2024-01-26T20:36:04.424Z,88.96
2024-01-26T20:38:31.876Z,89.32
2024-01-26T20:40:58.442Z,90.23
2024-01-26T20:43:26.877Z,89.67
2024-01-26T20:45:53.667Z,89.76
2024-01-26T20:48:20.585Z,89.63
2024-01-26T20:50:47.525Z,89.58
2024-01-26T20:53:14.114Z,89.70
2024-01-26T20:55:40.602Z,89.70
2024-01-26T20:58:08.043Z,89.86
2024-01-26T21:00:34.730Z,90.03
2024-01-26T21:03:01.407Z,89.76
2024-01-26T21:05:32.676Z,89.82
2024-01-26T21:08:00.107Z,89.89
2024-01-26T21:10:27.033Z,90.13
2024-01-26T21:12:57.494Z,90.05
2024-01-26T21:15:25.365Z,90.09
2024-01-26T21:17:52.088Z,90.26
2024-01-26T21:20:18.988Z,90.45
2024-01-26T21:22:49.750Z,90.44
2024-01-26T21:25:16.582Z,90.57
2024-01-26T21:27:43.065Z,90.69
2024-01-26T21:30:10.193Z,90.72
2024-01-26T21:32:36.967Z,90.89
2024-01-26T21:35:05.179Z,91.12
2024-01-26T21:37:32.080Z,91.02
2024-01-26T21:39:58.627Z,91.33
2024-01-26T21:42:26.412Z,91.20
2024-01-26T21:44:53.311Z,91.55
2024-01-26T21:47:19.956Z,91.91
2024-01-26T21:49:46.761Z,91.96
2024-01-26T21:52:15.311Z,92.21
2024-01-26T21:54:41.976Z,92.25
2024-01-26T21:57:08.713Z,92.47
2024-01-26T21:59:35.247Z,92.47
2024-01-26T22:02:01.774Z,92.63
2024-01-26T22:04:29.412Z,92.57
2024-01-26T22:06:56.578Z,92.79
2024-01-26T22:09:23.342Z,92.64
2024-01-26T22:11:49.961Z,92.47
2024-01-26T22:14:17.992Z,92.61
2024-01-26T22:16:44.501Z,92.56
2024-01-26T22:19:11.201Z,92.68
2024-01-26T22:21:37.830Z,92.61
2024-01-26T22:24:04.782Z,92.84
2024-01-26T22:26:31.320Z,92.65
2024-01-26T22:28:59.810Z,92.78
2024-01-26T22:31:26.420Z,92.73
2024-01-26T22:33:53.267Z,92.85
2024-01-26T22:36:20.325Z,92.63
2024-01-26T22:38:53.605Z,92.75
2024-01-26T22:41:20.290Z,92.65
2024-01-26T22:43:46.832Z,92.76
2024-01-26T22:46:13.764Z,92.89
2024-01-26T22:48:40.509Z,93.15
2024-01-26T22:51:07.341Z,93.00
2024-01-26T22:53:33.848Z,92.83
2024-01-26T22:56:01.106Z,93.17
2024-01-26T22:58:27.614Z,92.99
2024-01-26T23:00:54.163Z,93.39
2024-01-26T23:03:20.895Z,93.07
2024-01-26T23:05:49.218Z,93.17
2024-01-26T23:08:16.018Z,93.17
2024-01-26T23:10:42.539Z,93.42
2024-01-26T23:13:09.102Z,93.43
2024-01-26T23:15:35.635Z,93.52
2024-01-26T23:18:02.540Z,93.34
2024-01-26T23:20:29.136Z,93.46
2024-01-26T23:22:55.637Z,93.55
2024-01-26T23:25:22.144Z,93.49
2024-01-26T23:27:48.840Z,93.21
2024-01-26T23:30:15.486Z,93.43
2024-01-26T23:32:45.335Z,93.40
2024-01-26T23:35:12.888Z,93.57
2024-01-26T23:37:39.485Z,93.70
2024-01-26T23:40:07.315Z,93.58
2024-01-26T23:42:34.007Z,93.57
2024-01-26T23:45:00.858Z,93.51
2024-01-26T23:47:27.561Z,93.38
2024-01-26T23:49:54.305Z,93.35
2024-01-26T23:52:21.501Z,93.43
2024-01-26T23:54:48.023Z,93.34
2024-01-26T23:57:15.417Z,93.47
2024-01-26T23:59:42.077Z,93.50
